createdAt,value
2018-09-26T00:00:31.999Z,1.27
2018-09-26T00:03:03.877Z,1.67
2018-09-26T00:05:33.139Z,1.80
2018-09-26T00:08:02.436Z,1.90
2018-09-26T00:10:31.033Z,1.27
2018-09-26T00:12:59.628Z,1.30
2018-09-26T00:15:28.187Z,1.30
2018-09-26T00:17:56.783Z,1.73
2018-09-26T00:20:25.375Z,1.30
2018-09-26T00:22:53.964Z,1.43
2018-09-26T00:25:22.577Z,2.20
2018-09-26T00:27:51.179Z,1.73
2018-09-26T00:30:19.809Z,1.60
2018-09-26T00:32:48.404Z,2.07
2018-09-26T00:35:17.023Z,1.87
2018-09-26T00:37:45.614Z,1.50
2018-09-26T00:40:14.217Z,1.97
2018-09-26T00:42:42.793Z,2.07
2018-09-26T00:45:11.403Z,2.27
2018-09-26T00:47:40.057Z,1.80
2018-09-26T00:50:08.680Z,1.50
2018-09-26T00:52:37.264Z,1.80
2018-09-26T00:55:06.187Z,1.63
2018-09-26T00:57:34.883Z,2.13
2018-09-26T01:00:03.571Z,2.10
2018-09-26T01:02:32.181Z,1.70
2018-09-26T01:05:00.790Z,1.77
2018-09-26T01:07:29.374Z,2.60
2018-09-26T01:09:58.055Z,1.60
2018-09-26T01:12:26.664Z,2.00
2018-09-26T01:14:55.299Z,1.57
2018-09-26T01:17:23.907Z,1.80
2018-09-26T01:19:52.518Z,1.80
2018-09-26T01:22:21.146Z,2.00
2018-09-26T01:24:49.757Z,1.90
2018-09-26T01:27:18.344Z,1.70
2018-09-26T01:29:46.941Z,1.70
2018-09-26T01:32:15.586Z,1.53
2018-09-26T01:34:44.146Z,1.77
2018-09-26T01:37:12.779Z,1.90
2018-09-26T01:39:41.416Z,1.93
2018-09-26T01:42:10.059Z,1.30
2018-09-26T01:44:38.643Z,2.43
2018-09-26T01:47:07.254Z,1.10
2018-09-26T01:49:35.845Z,1.60
2018-09-26T01:52:04.484Z,2.00
2018-09-26T01:54:33.100Z,1.83
2018-09-26T01:57:01.744Z,1.83
2018-09-26T01:59:30.371Z,1.50
2018-09-26T02:01:58.994Z,2.37
2018-09-26T02:04:27.602Z,2.23
2018-09-26T02:06:56.192Z,1.90
2018-09-26T02:09:24.804Z,1.93
2018-09-26T02:11:53.430Z,2.20
2018-09-26T02:14:22.016Z,2.10
2018-09-26T02:16:50.662Z,1.53
2018-09-26T02:19:19.258Z,2.53
2018-09-26T02:21:47.842Z,1.93
2018-09-26T02:24:16.459Z,1.83
2018-09-26T02:26:45.058Z,2.03
2018-09-26T02:29:13.660Z,1.93
2018-09-26T02:31:42.264Z,1.60
2018-09-26T02:34:11.037Z,2.50
2018-09-26T02:36:39.755Z,1.87
2018-09-26T02:39:08.786Z,2.10
2018-09-26T02:41:38.516Z,1.67
2018-09-26T02:44:07.259Z,1.63
2018-09-26T02:46:35.815Z,1.70
2018-09-26T02:49:07.218Z,1.60
2018-09-26T02:51:37.430Z,1.80
2018-09-26T02:54:06.781Z,1.70
2018-09-26T02:56:35.389Z,1.77
2018-09-26T02:59:04.113Z,1.73
2018-09-26T03:01:32.695Z,2.07
2018-09-26T03:04:01.354Z,1.70
2018-09-26T03:06:29.927Z,1.97
2018-09-26T03:08:58.550Z,1.60
2018-09-26T03:11:27.142Z,1.97
2018-09-26T03:13:55.755Z,1.93
2018-09-26T03:16:24.335Z,1.70
2018-09-26T03:18:52.974Z,1.83
2018-09-26T03:21:21.572Z,1.90
2018-09-26T03:23:50.162Z,2.07
2018-09-26T03:26:18.774Z,1.60
2018-09-26T03:28:47.369Z,1.37
2018-09-26T03:31:15.988Z,2.17
2018-09-26T03:33:44.603Z,1.50
2018-09-26T03:36:13.189Z,1.77
2018-09-26T03:38:41.792Z,1.80
2018-09-26T03:41:10.398Z,1.73
2018-09-26T03:43:38.963Z,2.27
2018-09-26T03:46:07.581Z,1.77
2018-09-26T03:48:36.268Z,1.40
2018-09-26T03:51:04.935Z,2.07
2018-09-26T03:53:33.557Z,1.70
2018-09-26T03:56:02.158Z,1.70
2018-09-26T03:58:30.729Z,2.40
2018-09-26T04:00:59.335Z,1.50
2018-09-26T04:03:28.030Z,1.97
2018-09-26T04:05:56.583Z,1.90
2018-09-26T04:08:25.111Z,1.80
2018-09-26T04:10:54.597Z,2.10
2018-09-26T04:13:23.113Z,2.10
2018-09-26T04:15:53.707Z,2.67
2018-09-26T04:18:23.902Z,1.53
2018-09-26T04:20:53.008Z,2.03
2018-09-26T04:23:21.651Z,2.30
2018-09-26T04:25:50.327Z,2.17
2018-09-26T04:28:18.880Z,1.53
2018-09-26T04:30:47.404Z,1.90
2018-09-26T04:33:16.177Z,2.10
2018-09-26T04:35:44.714Z,1.87
2018-09-26T04:38:13.323Z,1.80
2018-09-26T04:40:41.908Z,2.73
2018-09-26T04:43:10.462Z,1.53
2018-09-26T04:45:39.046Z,1.70
2018-09-26T04:48:07.614Z,2.60
2018-09-26T04:50:36.290Z,2.23
2018-09-26T04:53:04.968Z,2.70
2018-09-26T04:55:33.560Z,2.63
2018-09-26T04:58:02.245Z,2.90
2018-09-26T05:00:30.691Z,2.20
2018-09-26T05:02:59.310Z,1.93
2018-09-26T05:05:27.903Z,1.70
2018-09-26T05:07:57.653Z,2.70
2018-09-26T05:10:26.308Z,2.37
2018-09-26T05:12:54.998Z,2.60
2018-09-26T05:15:23.652Z,2.27
2018-09-26T05:17:52.303Z,1.93
2018-09-26T05:20:21.083Z,2.83
2018-09-26T05:22:49.743Z,2.27
2018-09-26T05:25:18.374Z,2.93
2018-09-26T05:27:46.979Z,2.17
2018-09-26T05:30:15.628Z,2.30
2018-09-26T05:32:44.260Z,2.90
2018-09-26T05:35:12.917Z,2.20
2018-09-26T05:37:41.632Z,2.60
2018-09-26T05:40:10.283Z,2.40
2018-09-26T05:42:38.915Z,2.90
2018-09-26T05:45:07.595Z,3.10
2018-09-26T05:47:36.223Z,3.33
2018-09-26T05:50:04.996Z,2.70
2018-09-26T05:52:33.583Z,3.97
2018-09-26T05:55:02.191Z,3.23
2018-09-26T05:57:30.795Z,3.63
2018-09-26T05:59:59.413Z,2.53
2018-09-26T06:02:28.103Z,3.70
2018-09-26T06:04:57.824Z,3.03
2018-09-26T06:07:26.436Z,3.60
2018-09-26T06:09:55.094Z,3.20
2018-09-26T06:12:23.675Z,2.87
2018-09-26T06:14:52.324Z,3.40
2018-09-26T06:17:20.992Z,3.37
2018-09-26T06:19:49.659Z,4.00
2018-09-26T06:22:18.243Z,4.33
2018-09-26T06:24:46.938Z,2.93
2018-09-26T06:27:15.533Z,3.60
2018-09-26T06:29:44.147Z,3.43
2018-09-26T06:32:12.750Z,3.57
2018-09-26T06:34:41.383Z,3.50
2018-09-26T06:37:10.152Z,2.80
2018-09-26T06:39:38.745Z,3.43
2018-09-26T06:42:07.351Z,3.20
2018-09-26T06:44:36.001Z,3.80
2018-09-26T06:47:04.710Z,3.10
2018-09-26T06:49:33.355Z,3.27
2018-09-26T06:52:02.051Z,3.20
2018-09-26T06:54:30.687Z,3.00
2018-09-26T06:56:59.348Z,3.53
2018-09-26T06:59:27.967Z,4.17
2018-09-26T07:01:56.581Z,4.07
2018-09-26T07:04:25.245Z,4.60
2018-09-26T07:06:53.943Z,4.90
2018-09-26T07:09:22.588Z,4.30
2018-09-26T07:11:51.187Z,3.87
2018-09-26T07:14:19.825Z,3.97
2018-09-26T07:16:48.450Z,4.20
2018-09-26T07:19:17.112Z,3.13
2018-09-26T07:21:45.796Z,2.87
2018-09-26T07:24:14.423Z,3.33
2018-09-26T07:26:43.037Z,2.97
2018-09-26T07:29:11.645Z,2.50
2018-09-26T07:31:40.261Z,2.77
2018-09-26T07:34:08.908Z,2.70
2018-09-26T07:36:37.570Z,2.30
2018-09-26T07:39:09.139Z,2.90
2018-09-26T07:41:38.130Z,2.30
2018-09-26T07:44:07.146Z,3.00
2018-09-26T07:46:35.996Z,2.87
2018-09-26T07:49:04.627Z,2.50
2018-09-26T07:51:33.219Z,2.70
2018-09-26T07:54:01.820Z,2.73
2018-09-26T07:56:30.420Z,2.97
2018-09-26T07:58:59.098Z,3.53
2018-09-26T08:01:27.699Z,3.33
2018-09-26T08:03:56.387Z,3.20
2018-09-26T08:06:24.995Z,2.90
2018-09-26T08:08:53.658Z,2.80
2018-09-26T08:11:22.367Z,2.27
2018-09-26T08:13:51.098Z,3.40
2018-09-26T08:16:19.711Z,3.17
2018-09-26T08:18:48.312Z,4.40
2018-09-26T08:21:16.914Z,3.63
2018-09-26T08:23:45.607Z,3.03
2018-09-26T08:26:14.244Z,3.50
2018-09-26T08:28:42.874Z,3.30
2018-09-26T08:31:11.557Z,3.80
2018-09-26T08:33:40.226Z,2.37
2018-09-26T08:36:08.899Z,3.17
2018-09-26T08:38:37.901Z,3.30
2018-09-26T08:41:06.604Z,2.67
2018-09-26T08:43:35.223Z,2.63
2018-09-26T08:46:03.863Z,2.70
2018-09-26T08:48:32.486Z,2.30
2018-09-26T08:51:01.133Z,2.10
2018-09-26T08:53:29.821Z,3.30
2018-09-26T08:55:58.485Z,2.70
2018-09-26T08:58:27.201Z,2.23
2018-09-26T09:00:55.830Z,2.30
2018-09-26T09:03:24.449Z,1.73
2018-09-26T09:05:53.281Z,1.77
2018-09-26T09:08:21.873Z,2.33
2018-09-26T09:10:50.535Z,2.03
2018-09-26T09:13:19.227Z,1.80
2018-09-26T09:15:47.872Z,1.90
2018-09-26T09:18:16.556Z,1.90
2018-09-26T09:20:45.172Z,1.70
2018-09-26T09:23:13.795Z,2.07
2018-09-26T09:25:42.622Z,2.50
2018-09-26T09:28:11.252Z,2.70
2018-09-26T09:30:39.901Z,1.90
2018-09-26T09:33:08.567Z,2.20
2018-09-26T09:35:37.216Z,2.13
2018-09-26T09:38:06.143Z,2.50
2018-09-26T09:40:34.753Z,2.20
2018-09-26T09:43:03.364Z,1.93
2018-09-26T09:45:32.003Z,2.57
2018-09-26T09:48:00.638Z,1.90
2018-09-26T09:50:29.256Z,2.00
2018-09-26T09:52:57.912Z,1.83
2018-09-26T09:55:26.542Z,1.97
2018-09-26T09:57:55.170Z,2.30
2018-09-26T10:00:28.007Z,2.43
2018-09-26T10:02:56.688Z,2.07
2018-09-26T10:05:25.164Z,2.33
2018-09-26T10:07:53.743Z,2.00
2018-09-26T10:10:22.389Z,1.90
2018-09-26T10:12:51.102Z,2.40
2018-09-26T10:15:19.791Z,2.20
2018-09-26T10:17:48.542Z,2.17
2018-09-26T10:20:17.253Z,1.90
2018-09-26T10:22:45.859Z,2.00
2018-09-26T10:25:14.495Z,2.20
2018-09-26T10:27:43.110Z,1.83
2018-09-26T10:30:11.754Z,1.97
2018-09-26T10:32:40.464Z,2.00
2018-09-26T10:35:09.102Z,2.67
2018-09-26T10:37:37.708Z,2.10
2018-09-26T10:40:06.617Z,2.43
2018-09-26T10:42:35.238Z,2.00
2018-09-26T10:45:04.036Z,2.20
2018-09-26T10:47:32.632Z,1.80
2018-09-26T10:50:01.328Z,2.43
2018-09-26T10:52:30.126Z,2.20
2018-09-26T10:54:58.783Z,2.40
2018-09-26T10:57:27.397Z,2.07
2018-09-26T10:59:56.091Z,2.13
2018-09-26T11:02:24.793Z,2.33
2018-09-26T11:04:53.333Z,2.40
2018-09-26T11:07:22.450Z,2.33
2018-09-26T11:09:51.156Z,2.30
2018-09-26T11:12:19.712Z,2.43
2018-09-26T11:14:48.289Z,1.97
2018-09-26T11:17:16.839Z,2.23
2018-09-26T11:19:45.403Z,2.30
2018-09-26T11:22:14.037Z,2.30
2018-09-26T11:24:42.626Z,1.73
2018-09-26T11:27:11.227Z,2.37
2018-09-26T11:29:39.795Z,2.27
2018-09-26T11:32:08.509Z,2.47
2018-09-26T11:34:37.138Z,2.50
2018-09-26T11:37:05.941Z,2.23
2018-09-26T11:39:34.546Z,2.33
2018-09-26T11:42:03.151Z,2.10
2018-09-26T11:44:31.769Z,2.33
2018-09-26T11:47:00.383Z,1.90
2018-09-26T11:49:28.943Z,2.10
2018-09-26T11:51:57.560Z,1.90
2018-09-26T11:54:26.219Z,1.83
2018-09-26T11:56:54.906Z,2.47
2018-09-26T11:59:23.447Z,1.70
2018-09-26T12:01:52.038Z,2.00
2018-09-26T12:04:20.749Z,1.83
2018-09-26T12:06:49.399Z,1.93
2018-09-26T12:09:18.025Z,2.00
2018-09-26T12:11:46.778Z,1.73
2018-09-26T12:14:15.443Z,1.63
2018-09-26T12:16:44.042Z,2.30
2018-09-26T12:19:12.722Z,1.73
2018-09-26T12:21:41.429Z,2.23
2018-09-26T12:24:10.080Z,2.60
2018-09-26T12:26:38.664Z,1.70
2018-09-26T12:29:08.384Z,2.83
2018-09-26T12:31:37.024Z,2.87
2018-09-26T12:34:05.895Z,1.97
2018-09-26T12:36:34.514Z,2.20
2018-09-26T12:39:04.510Z,2.13
2018-09-26T12:41:33.211Z,2.03
2018-09-26T12:44:01.946Z,2.00
2018-09-26T12:46:30.798Z,2.10
2018-09-26T12:48:59.440Z,1.83
2018-09-26T12:51:28.148Z,2.60
2018-09-26T12:53:56.939Z,5.80
2018-09-26T12:56:25.448Z,2.37
2018-09-26T12:58:54.124Z,2.43
2018-09-26T13:01:22.735Z,1.90
2018-09-26T13:03:51.331Z,1.70
2018-09-26T13:06:19.963Z,3.80
2018-09-26T13:08:48.556Z,1.60
2018-09-26T13:11:17.186Z,1.60
2018-09-26T13:13:45.799Z,2.10
2018-09-26T13:16:14.459Z,1.87
2018-09-26T13:18:42.968Z,1.50
2018-09-26T13:21:11.611Z,1.70
2018-09-26T13:23:40.247Z,2.60
2018-09-26T13:26:09.047Z,2.03
2018-09-26T13:28:39.263Z,1.97
2018-09-26T13:31:07.954Z,1.97
2018-09-26T13:33:37.575Z,2.67
2018-09-26T13:36:06.173Z,1.87
2018-09-26T13:38:34.700Z,1.70
2018-09-26T13:41:03.288Z,1.73
2018-09-26T13:43:31.826Z,1.37
2018-09-26T13:46:00.423Z,1.73
2018-09-26T13:48:28.981Z,1.63
2018-09-26T13:50:57.559Z,1.63
2018-09-26T13:53:26.106Z,2.07
2018-09-26T13:55:54.644Z,1.67
2018-09-26T13:58:23.219Z,1.83
2018-09-26T14:00:51.785Z,1.63
2018-09-26T14:03:20.379Z,1.57
2018-09-26T14:05:48.948Z,1.70
2018-09-26T14:08:17.699Z,2.83
2018-09-26T14:10:46.466Z,4.90
2018-09-26T14:13:15.135Z,2.03
2018-09-26T14:15:43.675Z,1.67
2018-09-26T14:18:12.302Z,1.77
2018-09-26T14:20:57.373Z,1.40
2018-09-26T14:23:26.215Z,2.23
2018-09-26T14:25:54.898Z,1.93
2018-09-26T14:28:23.706Z,1.83
2018-09-26T14:30:52.398Z,1.60
2018-09-26T14:33:21.158Z,1.17
2018-09-26T14:35:49.844Z,1.57
2018-09-26T14:38:18.579Z,1.37
2018-09-26T14:40:47.305Z,1.80
2018-09-26T14:43:16.694Z,1.40
2018-09-26T14:45:45.729Z,1.30
2018-09-26T14:48:14.403Z,1.50
2018-09-26T14:50:43.088Z,1.13
2018-09-26T14:53:11.881Z,1.60
2018-09-26T14:55:40.537Z,1.60
2018-09-26T14:58:09.328Z,1.50
2018-09-26T15:00:38.015Z,1.13
2018-09-26T15:03:07.124Z,1.83
2018-09-26T15:05:35.810Z,1.17
2018-09-26T15:08:04.488Z,1.77
2018-09-26T15:10:33.159Z,1.40
2018-09-26T15:13:01.816Z,1.53
2018-09-26T15:15:30.535Z,1.30
2018-09-26T15:17:59.226Z,1.43
2018-09-26T15:20:27.926Z,1.60
2018-09-26T15:22:56.574Z,1.30
2018-09-26T15:25:25.292Z,2.10
2018-09-26T15:27:54.021Z,1.23
2018-09-26T15:30:22.751Z,1.50
2018-09-26T15:32:51.529Z,1.50
2018-09-26T15:35:20.312Z,1.20
2018-09-26T15:37:49.218Z,1.20
2018-09-26T15:40:18.129Z,1.40
2018-09-26T15:42:46.788Z,1.43
2018-09-26T15:45:15.501Z,1.53
2018-09-26T15:47:44.170Z,1.60
2018-09-26T15:50:12.893Z,1.40
2018-09-26T15:52:41.589Z,1.23
2018-09-26T15:55:10.453Z,1.27
2018-09-26T15:57:39.131Z,1.47
2018-09-26T16:00:07.963Z,1.40
2018-09-26T16:02:36.585Z,1.20
2018-09-26T16:05:05.748Z,1.27
2018-09-26T16:07:34.301Z,1.23
2018-09-26T16:10:02.931Z,1.50
2018-09-26T16:12:31.690Z,1.60
2018-09-26T16:15:00.286Z,1.57
2018-09-26T16:17:28.905Z,1.57
2018-09-26T16:19:57.497Z,1.80
2018-09-26T16:22:26.300Z,1.33
2018-09-26T16:24:54.900Z,1.43
2018-09-26T16:27:23.455Z,1.47
2018-09-26T16:29:52.049Z,1.90
2018-09-26T16:32:20.721Z,1.50
2018-09-26T16:34:49.165Z,1.43
2018-09-26T16:37:17.778Z,1.37
2018-09-26T16:39:46.352Z,1.70
2018-09-26T16:42:14.971Z,1.60
2018-09-26T16:44:43.477Z,1.53
2018-09-26T16:47:12.080Z,1.53
2018-09-26T16:49:40.656Z,1.30
2018-09-26T16:52:09.252Z,1.50
2018-09-26T16:54:37.866Z,2.10
2018-09-26T16:57:06.652Z,1.30
2018-09-26T16:59:35.227Z,1.73
2018-09-26T17:02:03.813Z,2.00
2018-09-26T17:04:32.442Z,1.47
2018-09-26T17:07:01.034Z,1.70
2018-09-26T17:09:29.590Z,1.47
2018-09-26T17:11:58.159Z,1.63
2018-09-26T17:14:26.795Z,1.87
2018-09-26T17:16:55.362Z,1.50
2018-09-26T17:26:21.309Z,1.50
2018-09-26T17:28:49.904Z,1.57
2018-09-26T17:31:18.884Z,1.40
2018-09-26T17:33:47.490Z,1.63
2018-09-26T17:36:16.092Z,1.47
2018-09-26T17:38:44.646Z,1.63
2018-09-26T17:41:13.202Z,1.60
2018-09-26T17:43:41.764Z,2.70
2018-09-26T17:46:10.395Z,2.10
2018-09-26T17:48:39.014Z,2.10
2018-09-26T17:51:07.657Z,2.03
2018-09-26T17:53:36.274Z,2.33
2018-09-26T17:56:04.939Z,2.63
2018-09-26T17:58:33.466Z,2.00
2018-09-26T18:01:01.995Z,2.33
2018-09-26T18:03:30.592Z,2.47
2018-09-26T18:05:59.162Z,2.90
2018-09-26T18:08:27.736Z,2.93
2018-09-26T18:10:56.419Z,2.73
2018-09-26T18:13:25.115Z,2.57
2018-09-26T18:15:53.805Z,2.50
2018-09-26T18:18:22.487Z,3.03
2018-09-26T18:20:51.132Z,2.30
2018-09-26T18:23:19.886Z,3.30
2018-09-26T18:25:48.518Z,2.80
2018-09-26T18:28:17.186Z,2.20
2018-09-26T18:30:45.794Z,3.13
2018-09-26T18:33:14.444Z,2.47
2018-09-26T18:35:43.085Z,3.43
2018-09-26T18:38:11.695Z,3.87
2018-09-26T18:40:40.382Z,3.17
2018-09-26T18:43:09.032Z,2.80
2018-09-26T18:45:37.751Z,3.23
2018-09-26T18:48:06.419Z,3.53
2018-09-26T18:50:35.070Z,3.50
2018-09-26T18:53:03.694Z,3.60
2018-09-26T18:55:32.371Z,3.47
2018-09-26T18:58:01.143Z,2.73
2018-09-26T19:00:29.740Z,3.30
2018-09-26T19:02:58.407Z,3.10
2018-09-26T19:05:27.065Z,2.53
2018-09-26T19:07:56.065Z,2.53
2018-09-26T19:10:24.681Z,2.67
2018-09-26T19:12:53.283Z,3.20
2018-09-26T19:15:21.932Z,2.33
2018-09-26T19:17:50.536Z,2.70
2018-09-26T19:20:19.159Z,2.37
2018-09-26T19:22:47.959Z,2.03
2018-09-26T19:25:16.520Z,2.30
2018-09-26T19:27:45.179Z,1.73
2018-09-26T19:30:14.530Z,2.10
2018-09-26T19:32:43.144Z,2.60
2018-09-26T19:35:11.827Z,2.20
2018-09-26T19:37:40.448Z,3.30
2018-09-26T19:40:09.300Z,2.70
2018-09-26T19:42:37.882Z,2.30
2018-09-26T19:45:06.667Z,2.50
2018-09-26T19:47:35.351Z,2.10
2018-09-26T19:50:04.136Z,2.03
2018-09-26T19:52:32.904Z,1.90
2018-09-26T19:55:01.530Z,2.20
2018-09-26T19:57:30.192Z,2.20
2018-09-26T19:59:58.795Z,2.60
2018-09-26T20:02:27.402Z,1.87
2018-09-26T20:04:56.008Z,2.13
2018-09-26T20:07:24.539Z,3.17
2018-09-26T20:09:53.067Z,2.00
2018-09-26T20:12:21.783Z,2.30
2018-09-26T20:14:50.384Z,2.07
2018-09-26T20:17:20.133Z,2.50
2018-09-26T20:19:48.743Z,2.50
2018-09-26T20:22:17.304Z,2.03
2018-09-26T20:24:45.844Z,2.27
2018-09-26T20:27:14.397Z,1.83
2018-09-26T20:29:43.124Z,1.90
2018-09-26T20:32:11.579Z,2.30
2018-09-26T20:34:40.112Z,2.47
2018-09-26T20:37:08.836Z,2.53
2018-09-26T20:39:37.355Z,2.60
2018-09-26T20:42:05.939Z,2.40
2018-09-26T20:44:34.535Z,1.80
2018-09-26T20:47:03.184Z,2.83
2018-09-26T20:49:31.719Z,2.50
2018-09-26T20:52:00.335Z,2.47
2018-09-26T20:54:28.917Z,2.17
2018-09-26T20:56:57.420Z,2.83
2018-09-26T20:59:25.958Z,3.00
2018-09-26T21:01:54.512Z,2.97
2018-09-26T21:04:23.207Z,3.00
2018-09-26T21:06:51.838Z,2.83
2018-09-26T21:09:20.444Z,2.80
2018-09-26T21:11:49.058Z,2.80
2018-09-26T21:14:17.583Z,2.93
2018-09-26T21:16:46.130Z,2.67
2018-09-26T21:19:14.622Z,2.97
2018-09-26T21:21:43.204Z,2.80
2018-09-26T21:24:11.720Z,2.90
2018-09-26T21:26:40.255Z,2.23
2018-09-26T21:29:08.863Z,2.60
2018-09-26T21:31:37.492Z,2.70
2018-09-26T21:34:06.007Z,1.70
2018-09-26T21:36:34.572Z,2.37
2018-09-26T21:39:03.330Z,3.10
2018-09-26T21:41:31.860Z,2.30
2018-09-26T21:44:00.459Z,2.50
2018-09-26T21:46:29.023Z,2.77
2018-09-26T21:48:57.532Z,2.67
2018-09-26T21:51:26.059Z,2.77
2018-09-26T21:53:54.559Z,3.10
2018-09-26T21:56:23.110Z,2.77
2018-09-26T21:58:51.660Z,2.47
2018-09-26T22:01:20.202Z,2.20
2018-09-26T22:03:48.752Z,2.73
2018-09-26T22:06:17.272Z,2.90
2018-09-26T22:08:45.766Z,2.50
2018-09-26T22:11:14.314Z,2.67
2018-09-26T22:13:42.843Z,2.80
2018-09-26T22:16:11.387Z,3.40
2018-09-26T22:18:39.948Z,3.40
2018-09-26T22:21:08.455Z,2.30
2018-09-26T22:23:36.990Z,3.07
2018-09-26T22:26:05.566Z,2.37
2018-09-26T22:28:34.156Z,3.03
2018-09-26T22:31:02.661Z,2.80
2018-09-26T22:33:31.439Z,2.33
2018-09-26T22:35:59.963Z,3.90
2018-09-26T22:38:28.503Z,2.10
2018-09-26T22:40:57.056Z,2.77
2018-09-26T22:43:25.586Z,2.33
2018-09-26T22:45:54.095Z,2.30
2018-09-26T22:48:22.606Z,2.63
2018-09-26T22:50:51.234Z,2.33
2018-09-26T22:53:19.766Z,2.20
2018-09-26T22:55:48.264Z,2.00
2018-09-26T22:58:16.776Z,2.00
2018-09-26T23:00:45.322Z,2.13
2018-09-26T23:03:13.946Z,2.10
2018-09-26T23:05:42.502Z,2.00
2018-09-26T23:08:11.075Z,1.90
2018-09-26T23:10:39.664Z,2.30
2018-09-26T23:13:08.303Z,2.37
2018-09-26T23:15:36.883Z,2.00
2018-09-26T23:18:05.479Z,2.27
2018-09-26T23:20:34.206Z,1.50
2018-09-26T23:23:02.769Z,1.80
2018-09-26T23:25:31.426Z,1.80
2018-09-26T23:27:59.967Z,1.90
2018-09-26T23:30:28.647Z,1.77
2018-09-26T23:32:57.228Z,1.93
2018-09-26T23:35:25.895Z,1.90
2018-09-26T23:37:54.442Z,2.00
2018-09-26T23:40:23.043Z,3.63
2018-09-26T23:42:51.675Z,2.00
2018-09-26T23:45:20.308Z,1.73
2018-09-26T23:47:48.866Z,2.13
2018-09-26T23:50:17.559Z,1.87
2018-09-26T23:52:46.136Z,2.87
2018-09-26T23:55:14.752Z,2.40
2018-09-26T23:57:43.362Z,1.90
